sensor_id;sensor_type;location;lat;lon;timestamp;temperature;humidity
26081;DHT22;13991;51.174;4.438;2023-07-09T00:00:20;26.10;99.90
26081;DHT22;13991;51.174;4.438;2023-07-09T00:02:45;26.00;99.90
26081;DHT22;13991;51.174;4.438;2023-07-09T00:05:16;26.10;99.90
26081;DHT22;13991;51.174;4.438;2023-07-09T00:07:43;26.00;99.90
26081;DHT22;13991;51.174;4.438;2023-07-09T00:10:20;26.00;99.90
26081;DHT22;13991;51.174;4.438;2023-07-09T00:12:47;26.00;99.90
26081;DHT22;13991;51.174;4.438;2023-07-09T00:15:14;25.90;99.90
26081;DHT22;13991;51.174;4.438;2023-07-09T00:17:41;25.90;99.90
26081;DHT22;13991;51.174;4.438;2023-07-09T00:20:17;25.80;99.90
26081;DHT22;13991;51.174;4.438;2023-07-09T00:22:43;25.80;99.90
26081;DHT22;13991;51.174;4.438;2023-07-09T00:25:19;25.80;99.90
26081;DHT22;13991;51.174;4.438;2023-07-09T00:27:45;25.80;99.90
26081;DHT22;13991;51.174;4.438;2023-07-09T00:30:23;25.90;99.90
26081;DHT22;13991;51.174;4.438;2023-07-09T00:32:52;25.90;99.90
26081;DHT22;13991;51.174;4.438;2023-07-09T00:35:19;25.80;99.90
26081;DHT22;13991;51.174;4.438;2023-07-09T00:37:45;25.80;99.90
26081;DHT22;13991;51.174;4.438;2023-07-09T00:40:22;25.80;99.90
26081;DHT22;13991;51.174;4.438;2023-07-09T00:42:51;25.70;99.90
26081;DHT22;13991;51.174;4.438;2023-07-09T00:45:24;25.70;99.90
26081;DHT22;13991;51.174;4.438;2023-07-09T00:47:56;25.70;99.90
26081;DHT22;13991;51.174;4.438;2023-07-09T00:50:34;25.70;99.90
26081;DHT22;13991;51.174;4.438;2023-07-09T00:53:04;25.70;99.90
26081;DHT22;13991;51.174;4.438;2023-07-09T00:55:36;25.70;99.90
26081;DHT22;13991;51.174;4.438;2023-07-09T00:58:06;25.70;99.90
26081;DHT22;13991;51.174;4.438;2023-07-09T01:00:39;25.70;99.90
26081;DHT22;13991;51.174;4.438;2023-07-09T01:03:34;25.60;99.90
26081;DHT22;13991;51.174;4.438;2023-07-09T01:06:00;25.60;99.90
26081;DHT22;13991;51.174;4.438;2023-07-09T01:08:30;25.60;99.90
26081;DHT22;13991;51.174;4.438;2023-07-09T01:10:58;25.60;99.90
26081;DHT22;13991;51.174;4.438;2023-07-09T01:13:27;25.50;99.90
26081;DHT22;13991;51.174;4.438;2023-07-09T01:15:54;25.60;99.90
26081;DHT22;13991;51.174;4.438;2023-07-09T01:18:21;25.50;99.90
26081;DHT22;13991;51.174;4.438;2023-07-09T01:20:48;25.50;99.90
26081;DHT22;13991;51.174;4.438;2023-07-09T01:23:13;25.50;99.90
26081;DHT22;13991;51.174;4.438;2023-07-09T01:25:46;25.60;99.90
26081;DHT22;13991;51.174;4.438;2023-07-09T01:28:12;25.50;99.90
26081;DHT22;13991;51.174;4.438;2023-07-09T01:30:40;25.40;99.90
26081;DHT22;13991;51.174;4.438;2023-07-09T01:33:06;25.40;99.90
26081;DHT22;13991;51.174;4.438;2023-07-09T01:35:34;25.30;99.90
26081;DHT22;13991;51.174;4.438;2023-07-09T01:38:01;25.30;99.90
26081;DHT22;13991;51.174;4.438;2023-07-09T01:40:27;25.40;99.90
26081;DHT22;13991;51.174;4.438;2023-07-09T01:42:54;25.30;99.90
26081;DHT22;13991;51.174;4.438;2023-07-09T01:45:27;25.30;99.90
26081;DHT22;13991;51.174;4.438;2023-07-09T01:47:54;25.30;99.90
26081;DHT22;13991;51.174;4.438;2023-07-09T01:50:21;25.30;99.90
26081;DHT22;13991;51.174;4.438;2023-07-09T01:52:47;25.30;99.90
26081;DHT22;13991;51.174;4.438;2023-07-09T01:55:15;25.30;99.90
26081;DHT22;13991;51.174;4.438;2023-07-09T01:57:42;25.30;99.90
26081;DHT22;13991;51.174;4.438;2023-07-09T02:00:15;25.40;99.90
26081;DHT22;13991;51.174;4.438;2023-07-09T02:02:43;25.40;99.90
26081;DHT22;13991;51.174;4.438;2023-07-09T02:05:10;25.30;99.90
26081;DHT22;13991;51.174;4.438;2023-07-09T02:07:36;25.30;99.90
26081;DHT22;13991;51.174;4.438;2023-07-09T02:10:02;25.20;99.90
26081;DHT22;13991;51.174;4.438;2023-07-09T02:12:28;25.20;99.90
26081;DHT22;13991;51.174;4.438;2023-07-09T02:14:54;25.10;99.90
26081;DHT22;13991;51.174;4.438;2023-07-09T02:17:19;25.10;99.90
26081;DHT22;13991;51.174;4.438;2023-07-09T02:19:45;25.10;99.90
26081;DHT22;13991;51.174;4.438;2023-07-09T02:22:12;25.10;99.90
26081;DHT22;13991;51.174;4.438;2023-07-09T02:24:38;25.10;99.90
26081;DHT22;13991;51.174;4.438;2023-07-09T02:27:07;25.10;99.90
26081;DHT22;13991;51.174;4.438;2023-07-09T02:29:33;25.10;99.90
26081;DHT22;13991;51.174;4.438;2023-07-09T02:32:00;25.00;99.90
26081;DHT22;13991;51.174;4.438;2023-07-09T02:34:27;25.00;99.90
26081;DHT22;13991;51.174;4.438;2023-07-09T02:36:54;25.00;99.90
26081;DHT22;13991;51.174;4.438;2023-07-09T02:39:20;25.00;99.90
26081;DHT22;13991;51.174;4.438;2023-07-09T02:41:46;25.00;99.90
26081;DHT22;13991;51.174;4.438;2023-07-09T02:44:12;24.90;99.90
26081;DHT22;13991;51.174;4.438;2023-07-09T02:46:37;24.90;99.90
26081;DHT22;13991;51.174;4.438;2023-07-09T02:49:04;24.90;99.90
26081;DHT22;13991;51.174;4.438;2023-07-09T02:51:30;24.90;99.90
26081;DHT22;13991;51.174;4.438;2023-07-09T02:53:57;24.80;99.90
26081;DHT22;13991;51.174;4.438;2023-07-09T02:56:23;24.80;99.90
26081;DHT22;13991;51.174;4.438;2023-07-09T02:58:50;24.80;99.90
26081;DHT22;13991;51.174;4.438;2023-07-09T03:01:18;24.80;99.90
26081;DHT22;13991;51.174;4.438;2023-07-09T03:03:43;24.80;99.90
26081;DHT22;13991;51.174;4.438;2023-07-09T03:06:10;24.80;99.90
26081;DHT22;13991;51.174;4.438;2023-07-09T03:08:35;24.80;99.90
26081;DHT22;13991;51.174;4.438;2023-07-09T03:11:12;24.80;99.90
26081;DHT22;13991;51.174;4.438;2023-07-09T03:13:38;24.90;99.90
26081;DHT22;13991;51.174;4.438;2023-07-09T03:16:04;24.80;99.90
26081;DHT22;13991;51.174;4.438;2023-07-09T03:18:30;24.80;99.90
26081;DHT22;13991;51.174;4.438;2023-07-09T03:20:56;24.70;99.90
26081;DHT22;13991;51.174;4.438;2023-07-09T03:23:22;24.70;99.90
26081;DHT22;13991;51.174;4.438;2023-07-09T03:25:48;24.70;99.90
26081;DHT22;13991;51.174;4.438;2023-07-09T03:28:14;24.70;99.90
26081;DHT22;13991;51.174;4.438;2023-07-09T03:30:44;24.70;99.90
26081;DHT22;13991;51.174;4.438;2023-07-09T03:33:11;24.70;99.90
26081;DHT22;13991;51.174;4.438;2023-07-09T03:35:37;24.70;99.90
26081;DHT22;13991;51.174;4.438;2023-07-09T03:38:07;24.70;99.90
26081;DHT22;13991;51.174;4.438;2023-07-09T03:40:33;24.70;99.90
26081;DHT22;13991;51.174;4.438;2023-07-09T03:42:59;24.60;99.90
26081;DHT22;13991;51.174;4.438;2023-07-09T03:45:25;24.30;99.90
26081;DHT22;13991;51.174;4.438;2023-07-09T03:47:51;23.90;99.90
26081;DHT22;13991;51.174;4.438;2023-07-09T03:50:17;23.70;99.90
26081;DHT22;13991;51.174;4.438;2023-07-09T03:52:43;23.80;99.90
26081;DHT22;13991;51.174;4.438;2023-07-09T03:55:09;23.90;99.90
26081;DHT22;13991;51.174;4.438;2023-07-09T03:57:35;24.10;99.90
26081;DHT22;13991;51.174;4.438;2023-07-09T04:00:02;23.80;99.90
26081;DHT22;13991;51.174;4.438;2023-07-09T04:02:28;23.80;99.90
26081;DHT22;13991;51.174;4.438;2023-07-09T04:04:54;24.00;99.90
26081;DHT22;13991;51.174;4.438;2023-07-09T04:07:19;23.90;99.90
26081;DHT22;13991;51.174;4.438;2023-07-09T04:09:45;24.00;99.90
26081;DHT22;13991;51.174;4.438;2023-07-09T04:12:11;24.00;99.90
26081;DHT22;13991;51.174;4.438;2023-07-09T04:14:36;24.10;99.90
26081;DHT22;13991;51.174;4.438;2023-07-09T04:17:03;24.10;99.90
26081;DHT22;13991;51.174;4.438;2023-07-09T04:19:29;24.20;99.90
26081;DHT22;13991;51.174;4.438;2023-07-09T04:21:54;24.20;99.90
26081;DHT22;13991;51.174;4.438;2023-07-09T04:24:20;24.20;99.90
26081;DHT22;13991;51.174;4.438;2023-07-09T04:26:47;24.30;99.90
26081;DHT22;13991;51.174;4.438;2023-07-09T04:29:13;24.30;99.90
26081;DHT22;13991;51.174;4.438;2023-07-09T04:31:40;24.30;99.90
26081;DHT22;13991;51.174;4.438;2023-07-09T04:34:05;24.30;99.90
26081;DHT22;13991;51.174;4.438;2023-07-09T04:36:32;24.20;99.90
26081;DHT22;13991;51.174;4.438;2023-07-09T04:38:57;24.20;99.90
26081;DHT22;13991;51.174;4.438;2023-07-09T04:41:23;24.20;99.90
26081;DHT22;13991;51.174;4.438;2023-07-09T04:43:49;24.20;99.90
26081;DHT22;13991;51.174;4.438;2023-07-09T04:46:15;24.20;99.90
26081;DHT22;13991;51.174;4.438;2023-07-09T04:48:41;24.20;99.90
26081;DHT22;13991;51.174;4.438;2023-07-09T04:51:07;24.30;99.90
26081;DHT22;13991;51.174;4.438;2023-07-09T04:53:33;24.40;99.90
26081;DHT22;13991;51.174;4.438;2023-07-09T04:55:59;24.30;99.90
26081;DHT22;13991;51.174;4.438;2023-07-09T04:58:24;24.40;99.90
26081;DHT22;13991;51.174;4.438;2023-07-09T05:00:50;24.40;99.90
26081;DHT22;13991;51.174;4.438;2023-07-09T05:03:18;24.40;99.90
26081;DHT22;13991;51.174;4.438;2023-07-09T05:05:45;24.40;99.90
26081;DHT22;13991;51.174;4.438;2023-07-09T05:08:11;24.50;99.90
26081;DHT22;13991;51.174;4.438;2023-07-09T05:10:44;24.50;99.90
26081;DHT22;13991;51.174;4.438;2023-07-09T05:13:11;24.60;99.90
26081;DHT22;13991;51.174;4.438;2023-07-09T05:15:40;24.60;99.90
26081;DHT22;13991;51.174;4.438;2023-07-09T05:18:06;24.70;99.90
26081;DHT22;13991;51.174;4.438;2023-07-09T05:20:33;24.80;99.90
26081;DHT22;13991;51.174;4.438;2023-07-09T05:22:59;24.90;99.90
26081;DHT22;13991;51.174;4.438;2023-07-09T05:25:25;24.90;99.90
26081;DHT22;13991;51.174;4.438;2023-07-09T05:27:50;25.00;99.90
26081;DHT22;13991;51.174;4.438;2023-07-09T05:30:17;24.90;99.90
26081;DHT22;13991;51.174;4.438;2023-07-09T05:32:43;25.00;99.90
26081;DHT22;13991;51.174;4.438;2023-07-09T05:35:09;25.00;99.90
26081;DHT22;13991;51.174;4.438;2023-07-09T05:37:36;25.10;99.90
26081;DHT22;13991;51.174;4.438;2023-07-09T05:40:03;25.10;99.90
26081;DHT22;13991;51.174;4.438;2023-07-09T05:42:30;25.10;99.90
26081;DHT22;13991;51.174;4.438;2023-07-09T05:44:56;25.10;99.90
26081;DHT22;13991;51.174;4.438;2023-07-09T05:47:22;25.10;99.90
26081;DHT22;13991;51.174;4.438;2023-07-09T05:49:48;25.20;99.90
26081;DHT22;13991;51.174;4.438;2023-07-09T05:52:19;25.20;99.90
26081;DHT22;13991;51.174;4.438;2023-07-09T05:54:45;25.30;99.90
26081;DHT22;13991;51.174;4.438;2023-07-09T05:57:11;25.30;99.90
26081;DHT22;13991;51.174;4.438;2023-07-09T05:59:37;25.50;99.90
26081;DHT22;13991;51.174;4.438;2023-07-09T06:02:03;25.50;99.90
26081;DHT22;13991;51.174;4.438;2023-07-09T06:04:29;25.60;99.90
26081;DHT22;13991;51.174;4.438;2023-07-09T06:06:56;25.50;99.90
26081;DHT22;13991;51.174;4.438;2023-07-09T06:09:23;25.50;99.90
26081;DHT22;13991;51.174;4.438;2023-07-09T06:11:48;25.60;99.90
26081;DHT22;13991;51.174;4.438;2023-07-09T06:14:14;25.60;99.90
26081;DHT22;13991;51.174;4.438;2023-07-09T06:16:42;25.70;99.90
26081;DHT22;13991;51.174;4.438;2023-07-09T06:19:08;25.80;99.90
26081;DHT22;13991;51.174;4.438;2023-07-09T06:21:34;26.00;99.90
26081;DHT22;13991;51.174;4.438;2023-07-09T06:24:00;26.30;99.90
26081;DHT22;13991;51.174;4.438;2023-07-09T06:26:26;26.60;99.90
26081;DHT22;13991;51.174;4.438;2023-07-09T06:28:51;27.00;99.90
26081;DHT22;13991;51.174;4.438;2023-07-09T06:31:17;27.10;99.90
26081;DHT22;13991;51.174;4.438;2023-07-09T06:33:44;26.80;99.90
26081;DHT22;13991;51.174;4.438;2023-07-09T06:36:10;26.70;99.90
26081;DHT22;13991;51.174;4.438;2023-07-09T06:38:35;26.60;99.90
26081;DHT22;13991;51.174;4.438;2023-07-09T06:41:01;26.30;99.90
26081;DHT22;13991;51.174;4.438;2023-07-09T06:43:27;26.30;99.90
26081;DHT22;13991;51.174;4.438;2023-07-09T06:45:58;26.10;99.90
26081;DHT22;13991;51.174;4.438;2023-07-09T06:48:26;26.10;99.90
26081;DHT22;13991;51.174;4.438;2023-07-09T06:50:53;26.10;99.90
26081;DHT22;13991;51.174;4.438;2023-07-09T06:53:20;26.40;99.90
26081;DHT22;13991;51.174;4.438;2023-07-09T06:55:46;26.50;99.90
26081;DHT22;13991;51.174;4.438;2023-07-09T06:58:12;26.60;99.90
26081;DHT22;13991;51.174;4.438;2023-07-09T07:00:38;26.30;99.90
26081;DHT22;13991;51.174;4.438;2023-07-09T07:03:05;26.40;99.90
26081;DHT22;13991;51.174;4.438;2023-07-09T07:05:31;26.60;99.90
26081;DHT22;13991;51.174;4.438;2023-07-09T07:07:57;26.60;99.90
26081;DHT22;13991;51.174;4.438;2023-07-09T07:10:23;26.60;99.90
26081;DHT22;13991;51.174;4.438;2023-07-09T07:12:49;26.50;99.90
26081;DHT22;13991;51.174;4.438;2023-07-09T07:15:16;26.60;99.90
26081;DHT22;13991;51.174;4.438;2023-07-09T07:17:42;26.70;99.90
26081;DHT22;13991;51.174;4.438;2023-07-09T07:20:10;26.70;99.90
26081;DHT22;13991;51.174;4.438;2023-07-09T07:22:38;26.70;99.90
26081;DHT22;13991;51.174;4.438;2023-07-09T07:25:09;26.20;99.90
26081;DHT22;13991;51.174;4.438;2023-07-09T07:27:36;26.00;99.90
26081;DHT22;13991;51.174;4.438;2023-07-09T07:30:03;25.70;99.90
26081;DHT22;13991;51.174;4.438;2023-07-09T07:32:28;25.60;99.90
26081;DHT22;13991;51.174;4.438;2023-07-09T07:34:54;25.70;99.90
26081;DHT22;13991;51.174;4.438;2023-07-09T07:37:20;25.50;99.90
26081;DHT22;13991;51.174;4.438;2023-07-09T07:39:47;25.60;99.90
26081;DHT22;13991;51.174;4.438;2023-07-09T07:42:13;25.70;99.90
26081;DHT22;13991;51.174;4.438;2023-07-09T07:44:38;25.80;99.90
26081;DHT22;13991;51.174;4.438;2023-07-09T07:47:04;25.60;99.90
26081;DHT22;13991;51.174;4.438;2023-07-09T07:49:30;25.70;99.90
26081;DHT22;13991;51.174;4.438;2023-07-09T07:51:56;25.80;99.90
26081;DHT22;13991;51.174;4.438;2023-07-09T07:54:22;25.60;99.90
26081;DHT22;13991;51.174;4.438;2023-07-09T07:56:47;25.60;99.90
26081;DHT22;13991;51.174;4.438;2023-07-09T07:59:13;25.60;99.90
26081;DHT22;13991;51.174;4.438;2023-07-09T08:01:40;25.60;99.90
26081;DHT22;13991;51.174;4.438;2023-07-09T08:04:06;25.60;99.90
26081;DHT22;13991;51.174;4.438;2023-07-09T08:06:32;25.30;99.90
26081;DHT22;13991;51.174;4.438;2023-07-09T08:08:58;25.60;99.90
26081;DHT22;13991;51.174;4.438;2023-07-09T08:11:24;25.70;99.90
26081;DHT22;13991;51.174;4.438;2023-07-09T08:13:50;25.80;99.90
26081;DHT22;13991;51.174;4.438;2023-07-09T08:16:16;25.90;99.90
26081;DHT22;13991;51.174;4.438;2023-07-09T08:18:42;26.00;99.90
26081;DHT22;13991;51.174;4.438;2023-07-09T08:21:08;26.10;99.90
26081;DHT22;13991;51.174;4.438;2023-07-09T08:23:34;26.40;99.90
26081;DHT22;13991;51.174;4.438;2023-07-09T08:26:02;26.50;99.90
26081;DHT22;13991;51.174;4.438;2023-07-09T08:28:33;26.60;99.90
26081;DHT22;13991;51.174;4.438;2023-07-09T08:31:00;26.60;99.90
26081;DHT22;13991;51.174;4.438;2023-07-09T08:33:30;26.50;99.90
26081;DHT22;13991;51.174;4.438;2023-07-09T08:35:56;26.20;99.90
26081;DHT22;13991;51.174;4.438;2023-07-09T08:38:23;26.20;99.90
26081;DHT22;13991;51.174;4.438;2023-07-09T08:43:35;26.20;99.90
26081;DHT22;13991;51.174;4.438;2023-07-09T08:48:41;26.10;99.90
26081;DHT22;13991;51.174;4.438;2023-07-09T08:51:24;26.60;99.90
26081;DHT22;13991;51.174;4.438;2023-07-09T08:53:58;26.90;99.90
26081;DHT22;13991;51.174;4.438;2023-07-09T08:56:26;26.70;99.90
26081;DHT22;13991;51.174;4.438;2023-07-09T08:58:55;26.80;99.90
26081;DHT22;13991;51.174;4.438;2023-07-09T09:01:53;27.10;99.90
26081;DHT22;13991;51.174;4.438;2023-07-09T09:04:33;27.20;99.90
26081;DHT22;13991;51.174;4.438;2023-07-09T09:07:20;27.30;99.90
26081;DHT22;13991;51.174;4.438;2023-07-09T09:10:00;27.20;99.90
26081;DHT22;13991;51.174;4.438;2023-07-09T09:12:33;27.40;99.90
26081;DHT22;13991;51.174;4.438;2023-07-09T09:15:09;27.30;99.90
26081;DHT22;13991;51.174;4.438;2023-07-09T09:17:37;27.40;99.90
26081;DHT22;13991;51.174;4.438;2023-07-09T09:20:19;27.50;99.90
26081;DHT22;13991;51.174;4.438;2023-07-09T09:23:10;27.50;99.90
26081;DHT22;13991;51.174;4.438;2023-07-09T09:25:42;27.50;99.90
26081;DHT22;13991;51.174;4.438;2023-07-09T09:28:10;27.60;99.90
26081;DHT22;13991;51.174;4.438;2023-07-09T09:30:35;27.20;99.90
26081;DHT22;13991;51.174;4.438;2023-07-09T09:33:08;27.20;99.90
26081;DHT22;13991;51.174;4.438;2023-07-09T09:35:41;27.50;99.90
26081;DHT22;13991;51.174;4.438;2023-07-09T09:38:17;27.50;99.90
26081;DHT22;13991;51.174;4.438;2023-07-09T09:40:48;27.30;99.90
26081;DHT22;13991;51.174;4.438;2023-07-09T09:46:42;26.90;99.90
26081;DHT22;13991;51.174;4.438;2023-07-09T09:49:12;27.30;99.90
26081;DHT22;13991;51.174;4.438;2023-07-09T09:51:40;27.50;99.90
26081;DHT22;13991;51.174;4.438;2023-07-09T09:54:16;27.70;99.90
26081;DHT22;13991;51.174;4.438;2023-07-09T09:56:43;27.80;99.90
26081;DHT22;13991;51.174;4.438;2023-07-09T09:59:27;27.70;99.90
26081;DHT22;13991;51.174;4.438;2023-07-09T10:01:59;27.60;99.90
26081;DHT22;13991;51.174;4.438;2023-07-09T10:04:26;27.60;99.90
26081;DHT22;13991;51.174;4.438;2023-07-09T10:06:56;27.50;99.90
26081;DHT22;13991;51.174;4.438;2023-07-09T10:12:40;27.70;99.90
26081;DHT22;13991;51.174;4.438;2023-07-09T10:18:06;27.70;99.90
26081;DHT22;13991;51.174;4.438;2023-07-09T10:20:45;27.80;99.90
26081;DHT22;13991;51.174;4.438;2023-07-09T10:31:17;28.00;99.90
26081;DHT22;13991;51.174;4.438;2023-07-09T10:34:18;28.10;99.90
26081;DHT22;13991;51.174;4.438;2023-07-09T10:39:50;27.80;99.90
26081;DHT22;13991;51.174;4.438;2023-07-09T10:45:16;27.30;99.90
26081;DHT22;13991;51.174;4.438;2023-07-09T10:47:52;27.30;99.90
26081;DHT22;13991;51.174;4.438;2023-07-09T10:50:38;27.30;99.90
26081;DHT22;13991;51.174;4.438;2023-07-09T10:54:00;27.10;99.90
26081;DHT22;13991;51.174;4.438;2023-07-09T11:01:40;26.90;99.90
26081;DHT22;13991;51.174;4.438;2023-07-09T11:04:40;26.80;99.90
26081;DHT22;13991;51.174;4.438;2023-07-09T11:19:25;27.10;99.90
26081;DHT22;13991;51.174;4.438;2023-07-09T11:30:46;27.60;99.90
26081;DHT22;13991;51.174;4.438;2023-07-09T11:33:31;27.60;99.90
26081;DHT22;13991;51.174;4.438;2023-07-09T11:36:46;27.60;99.90
26081;DHT22;13991;51.174;4.438;2023-07-09T11:39:27;28.00;99.90
26081;DHT22;13991;51.174;4.438;2023-07-09T11:41:57;27.80;99.90
26081;DHT22;13991;51.174;4.438;2023-07-09T11:44:29;27.40;99.90
26081;DHT22;13991;51.174;4.438;2023-07-09T11:52:43;27.10;99.90
26081;DHT22;13991;51.174;4.438;2023-07-09T11:55:40;26.90;99.90
26081;DHT22;13991;51.174;4.438;2023-07-09T11:58:18;27.20;99.90
26081;DHT22;13991;51.174;4.438;2023-07-09T12:00:59;27.30;99.90
26081;DHT22;13991;51.174;4.438;2023-07-09T12:03:32;27.30;99.90
26081;DHT22;13991;51.174;4.438;2023-07-09T12:06:05;27.30;99.90
26081;DHT22;13991;51.174;4.438;2023-07-09T12:08:42;26.90;99.90
26081;DHT22;13991;51.174;4.438;2023-07-09T12:11:30;26.90;99.90
26081;DHT22;13991;51.174;4.438;2023-07-09T12:14:25;27.00;99.90
26081;DHT22;13991;51.174;4.438;2023-07-09T12:16:53;26.90;99.90
26081;DHT22;13991;51.174;4.438;2023-07-09T12:19:21;26.70;99.90
26081;DHT22;13991;51.174;4.438;2023-07-09T12:21:53;26.80;99.90
26081;DHT22;13991;51.174;4.438;2023-07-09T12:24:30;26.70;99.90
26081;DHT22;13991;51.174;4.438;2023-07-09T12:26:59;26.60;99.90
26081;DHT22;13991;51.174;4.438;2023-07-09T12:29:26;26.60;99.90
26081;DHT22;13991;51.174;4.438;2023-07-09T12:31:52;26.40;99.90
26081;DHT22;13991;51.174;4.438;2023-07-09T12:34:17;26.30;99.90
26081;DHT22;13991;51.174;4.438;2023-07-09T12:36:46;26.20;99.90
26081;DHT22;13991;51.174;4.438;2023-07-09T12:39:16;26.20;99.90
26081;DHT22;13991;51.174;4.438;2023-07-09T12:41:42;26.00;99.90
26081;DHT22;13991;51.174;4.438;2023-07-09T12:44:18;26.00;99.90
26081;DHT22;13991;51.174;4.438;2023-07-09T12:46:45;26.00;99.90
26081;DHT22;13991;51.174;4.438;2023-07-09T12:49:26;25.90;99.90
26081;DHT22;13991;51.174;4.438;2023-07-09T12:51:58;25.90;99.90
26081;DHT22;13991;51.174;4.438;2023-07-09T12:54:24;25.70;99.90
26081;DHT22;13991;51.174;4.438;2023-07-09T12:56:52;25.50;99.90
26081;DHT22;13991;51.174;4.438;2023-07-09T12:59:22;25.50;99.90
26081;DHT22;13991;51.174;4.438;2023-07-09T13:01:50;25.70;99.90
26081;DHT22;13991;51.174;4.438;2023-07-09T13:04:16;25.80;99.90
26081;DHT22;13991;51.174;4.438;2023-07-09T13:06:47;25.70;99.90
26081;DHT22;13991;51.174;4.438;2023-07-09T13:09:20;25.10;99.90
26081;DHT22;13991;51.174;4.438;2023-07-09T13:11:47;24.80;99.90
26081;DHT22;13991;51.174;4.438;2023-07-09T13:14:27;24.40;99.90
26081;DHT22;13991;51.174;4.438;2023-07-09T13:17:03;24.00;99.90
26081;DHT22;13991;51.174;4.438;2023-07-09T13:19:29;23.60;99.90
26081;DHT22;13991;51.174;4.438;2023-07-09T13:21:55;23.70;99.90
26081;DHT22;13991;51.174;4.438;2023-07-09T13:24:24;23.70;99.90
26081;DHT22;13991;51.174;4.438;2023-07-09T13:26:50;23.90;99.90
26081;DHT22;13991;51.174;4.438;2023-07-09T13:29:18;24.10;99.90
26081;DHT22;13991;51.174;4.438;2023-07-09T13:31:45;23.90;99.90
26081;DHT22;13991;51.174;4.438;2023-07-09T13:34:20;23.80;99.90
26081;DHT22;13991;51.174;4.438;2023-07-09T13:36:47;23.80;99.90
26081;DHT22;13991;51.174;4.438;2023-07-09T13:39:13;23.70;99.90
26081;DHT22;13991;51.174;4.438;2023-07-09T13:41:43;23.70;99.90
26081;DHT22;13991;51.174;4.438;2023-07-09T13:44:21;23.60;99.90
26081;DHT22;13991;51.174;4.438;2023-07-09T13:46:47;23.50;99.90
26081;DHT22;13991;51.174;4.438;2023-07-09T13:49:15;23.40;99.90
26081;DHT22;13991;51.174;4.438;2023-07-09T13:51:44;23.40;99.90
26081;DHT22;13991;51.174;4.438;2023-07-09T13:54:34;23.30;99.90
26081;DHT22;13991;51.174;4.438;2023-07-09T13:57:05;23.40;99.90
26081;DHT22;13991;51.174;4.438;2023-07-09T13:59:32;23.40;99.90
26081;DHT22;13991;51.174;4.438;2023-07-09T14:01:58;23.20;99.90
26081;DHT22;13991;51.174;4.438;2023-07-09T14:04:26;23.20;99.90
26081;DHT22;13991;51.174;4.438;2023-07-09T14:06:52;23.20;99.90
26081;DHT22;13991;51.174;4.438;2023-07-09T14:09:18;23.40;99.90
26081;DHT22;13991;51.174;4.438;2023-07-09T14:11:45;23.70;99.90
26081;DHT22;13991;51.174;4.438;2023-07-09T14:14:18;23.90;99.90
26081;DHT22;13991;51.174;4.438;2023-07-09T14:16:45;24.10;99.90
26081;DHT22;13991;51.174;4.438;2023-07-09T14:19:16;24.30;99.90
26081;DHT22;13991;51.174;4.438;2023-07-09T14:21:42;24.40;99.90
26081;DHT22;13991;51.174;4.438;2023-07-09T14:24:18;24.60;99.90
26081;DHT22;13991;51.174;4.438;2023-07-09T14:26:44;24.70;99.90
26081;DHT22;13991;51.174;4.438;2023-07-09T14:29:12;24.60;99.90
26081;DHT22;13991;51.174;4.438;2023-07-09T14:31:40;24.70;99.90
26081;DHT22;13991;51.174;4.438;2023-07-09T14:34:21;25.00;99.90
26081;DHT22;13991;51.174;4.438;2023-07-09T14:36:50;25.30;99.90
26081;DHT22;13991;51.174;4.438;2023-07-09T14:39:16;25.60;99.90
26081;DHT22;13991;51.174;4.438;2023-07-09T14:41:43;25.70;99.90
26081;DHT22;13991;51.174;4.438;2023-07-09T14:44:30;25.90;99.90
26081;DHT22;13991;51.174;4.438;2023-07-09T14:46:58;26.00;99.90
26081;DHT22;13991;51.174;4.438;2023-07-09T14:49:25;25.90;99.90
26081;DHT22;13991;51.174;4.438;2023-07-09T14:51:51;26.30;99.90
26081;DHT22;13991;51.174;4.438;2023-07-09T14:54:29;26.30;99.90
26081;DHT22;13991;51.174;4.438;2023-07-09T14:56:57;26.20;99.90
26081;DHT22;13991;51.174;4.438;2023-07-09T14:59:23;26.60;99.90
26081;DHT22;13991;51.174;4.438;2023-07-09T15:01:49;26.80;99.90
26081;DHT22;13991;51.174;4.438;2023-07-09T15:06:51;26.30;99.90
26081;DHT22;13991;51.174;4.438;2023-07-09T15:09:20;26.20;99.90
26081;DHT22;13991;51.174;4.438;2023-07-09T15:11:49;26.20;99.90
26081;DHT22;13991;51.174;4.438;2023-07-09T15:14:15;26.30;99.90
26081;DHT22;13991;51.174;4.438;2023-07-09T15:16:41;26.10;99.90
26081;DHT22;13991;51.174;4.438;2023-07-09T15:19:14;25.90;99.90
26081;DHT22;13991;51.174;4.438;2023-07-09T15:21:41;26.00;99.90
26081;DHT22;13991;51.174;4.438;2023-07-09T15:24:32;26.30;99.90
26081;DHT22;13991;51.174;4.438;2023-07-09T15:26:59;26.40;99.90
26081;DHT22;13991;51.174;4.438;2023-07-09T15:29:26;26.30;99.90
26081;DHT22;13991;51.174;4.438;2023-07-09T15:31:52;26.00;99.90
26081;DHT22;13991;51.174;4.438;2023-07-09T15:34:17;25.80;99.90
26081;DHT22;13991;51.174;4.438;2023-07-09T15:36:51;25.70;99.90
26081;DHT22;13991;51.174;4.438;2023-07-09T15:39:18;25.60;99.90
26081;DHT22;13991;51.174;4.438;2023-07-09T15:41:44;25.70;99.90
26081;DHT22;13991;51.174;4.438;2023-07-09T15:44:12;25.60;99.90
26081;DHT22;13991;51.174;4.438;2023-07-09T15:46:40;25.70;99.90
26081;DHT22;13991;51.174;4.438;2023-07-09T15:49:07;25.70;99.90
26081;DHT22;13991;51.174;4.438;2023-07-09T15:51:32;25.80;99.90
26081;DHT22;13991;51.174;4.438;2023-07-09T15:53:58;25.50;99.90
26081;DHT22;13991;51.174;4.438;2023-07-09T16:04:49;25.30;99.90
26081;DHT22;13991;51.174;4.438;2023-07-09T16:09:52;24.90;99.90
26081;DHT22;13991;51.174;4.438;2023-07-09T16:12:18;25.00;99.90
26081;DHT22;13991;51.174;4.438;2023-07-09T16:14:44;25.00;99.90
26081;DHT22;13991;51.174;4.438;2023-07-09T16:17:10;24.90;99.90
26081;DHT22;13991;51.174;4.438;2023-07-09T16:19:36;24.70;99.90
26081;DHT22;13991;51.174;4.438;2023-07-09T16:22:04;24.60;99.90
26081;DHT22;13991;51.174;4.438;2023-07-09T16:24:32;24.50;99.90
26081;DHT22;13991;51.174;4.438;2023-07-09T16:27:00;24.40;99.90
26081;DHT22;13991;51.174;4.438;2023-07-09T16:29:29;24.30;99.90
26081;DHT22;13991;51.174;4.438;2023-07-09T16:31:56;23.90;99.90
26081;DHT22;13991;51.174;4.438;2023-07-09T16:34:28;23.80;99.90
26081;DHT22;13991;51.174;4.438;2023-07-09T16:36:57;23.90;99.90
26081;DHT22;13991;51.174;4.438;2023-07-09T16:41:53;23.90;99.90
26081;DHT22;13991;51.174;4.438;2023-07-09T16:44:20;23.60;99.90
26081;DHT22;13991;51.174;4.438;2023-07-09T16:46:48;23.40;99.90
26081;DHT22;13991;51.174;4.438;2023-07-09T16:49:37;23.50;99.90
26081;DHT22;13991;51.174;4.438;2023-07-09T16:52:16;23.40;99.90
26081;DHT22;13991;51.174;4.438;2023-07-09T16:54:42;23.50;99.90
26081;DHT22;13991;51.174;4.438;2023-07-09T16:57:16;23.60;99.90
26081;DHT22;13991;51.174;4.438;2023-07-09T16:59:43;23.80;99.90